sensor_id;sensor_type;location;lat;lon;timestamp;P1;durP1;ratioP1;P2;durP2;ratioP2
79792;SDS011;69279;49.072;17.462;2023-06-26T00:00:40;7.85;;;4.00;;
79792;SDS011;69279;49.072;17.462;2023-06-26T00:03:05;4.65;;;2.88;;
79792;SDS011;69279;49.072;17.462;2023-06-26T00:05:31;6.32;;;3.83;;
79792;SDS011;69279;49.072;17.462;2023-06-26T00:07:56;5.72;;;3.67;;
79792;SDS011;69279;49.072;17.462;2023-06-26T00:10:25;5.88;;;3.70;;
79792;SDS011;69279;49.072;17.462;2023-06-26T00:12:52;4.63;;;3.13;;
79792;SDS011;69279;49.072;17.462;2023-06-26T00:15:17;6.00;;;3.58;;
79792;SDS011;69279;49.072;17.462;2023-06-26T00:17:43;6.07;;;3.60;;
79792;SDS011;69279;49.072;17.462;2023-06-26T00:20:09;5.78;;;3.70;;
79792;SDS011;69279;49.072;17.462;2023-06-26T00:22:35;6.65;;;3.70;;
79792;SDS011;69279;49.072;17.462;2023-06-26T00:25:00;5.75;;;3.85;;
79792;SDS011;69279;49.072;17.462;2023-06-26T00:27:26;6.07;;;3.40;;
79792;SDS011;69279;49.072;17.462;2023-06-26T00:29:51;6.00;;;4.10;;
79792;SDS011;69279;49.072;17.462;2023-06-26T00:32:19;5.72;;;3.55;;
79792;SDS011;69279;49.072;17.462;2023-06-26T00:34:45;6.13;;;3.75;;
79792;SDS011;69279;49.072;17.462;2023-06-26T00:37:11;7.05;;;4.05;;
79792;SDS011;69279;49.072;17.462;2023-06-26T00:39:38;6.20;;;3.65;;
79792;SDS011;69279;49.072;17.462;2023-06-26T00:42:03;6.82;;;4.22;;
79792;SDS011;69279;49.072;17.462;2023-06-26T00:44:29;6.75;;;3.88;;
79792;SDS011;69279;49.072;17.462;2023-06-26T00:46:54;6.28;;;4.03;;
79792;SDS011;69279;49.072;17.462;2023-06-26T00:49:19;5.75;;;3.72;;
79792;SDS011;69279;49.072;17.462;2023-06-26T00:51:46;5.85;;;3.60;;
79792;SDS011;69279;49.072;17.462;2023-06-26T00:54:11;5.78;;;3.55;;
79792;SDS011;69279;49.072;17.462;2023-06-26T00:56:37;5.60;;;3.63;;
79792;SDS011;69279;49.072;17.462;2023-06-26T00:59:02;5.63;;;3.38;;
79792;SDS011;69279;49.072;17.462;2023-06-26T01:01:28;6.78;;;3.83;;
79792;SDS011;69279;49.072;17.462;2023-06-26T01:03:53;7.28;;;4.07;;
79792;SDS011;69279;49.072;17.462;2023-06-26T01:06:20;7.30;;;4.25;;
79792;SDS011;69279;49.072;17.462;2023-06-26T01:08:47;7.57;;;4.13;;
79792;SDS011;69279;49.072;17.462;2023-06-26T01:11:13;7.18;;;4.55;;
79792;SDS011;69279;49.072;17.462;2023-06-26T01:13:39;6.38;;;3.92;;
79792;SDS011;69279;49.072;17.462;2023-06-26T01:16:05;5.35;;;3.80;;
79792;SDS011;69279;49.072;17.462;2023-06-26T01:18:31;6.20;;;3.78;;
79792;SDS011;69279;49.072;17.462;2023-06-26T01:20:57;6.03;;;3.50;;
79792;SDS011;69279;49.072;17.462;2023-06-26T01:23:30;7.22;;;3.95;;
79792;SDS011;69279;49.072;17.462;2023-06-26T01:26:16;7.70;;;3.72;;
79792;SDS011;69279;49.072;17.462;2023-06-26T01:28:43;6.43;;;3.63;;
79792;SDS011;69279;49.072;17.462;2023-06-26T01:31:08;6.63;;;3.80;;
79792;SDS011;69279;49.072;17.462;2023-06-26T01:33:35;8.00;;;4.22;;
79792;SDS011;69279;49.072;17.462;2023-06-26T01:36:01;5.28;;;3.50;;
79792;SDS011;69279;49.072;17.462;2023-06-26T01:38:27;5.13;;;3.47;;
79792;SDS011;69279;49.072;17.462;2023-06-26T01:40:52;7.45;;;3.72;;
79792;SDS011;69279;49.072;17.462;2023-06-26T01:46:23;8.52;;;3.97;;
79792;SDS011;69279;49.072;17.462;2023-06-26T01:48:55;7.05;;;3.83;;
79792;SDS011;69279;49.072;17.462;2023-06-26T01:51:30;7.47;;;3.53;;
79792;SDS011;69279;49.072;17.462;2023-06-26T01:53:56;6.03;;;3.50;;
79792;SDS011;69279;49.072;17.462;2023-06-26T01:56:22;6.72;;;4.00;;
79792;SDS011;69279;49.072;17.462;2023-06-26T01:58:49;8.15;;;3.95;;
79792;SDS011;69279;49.072;17.462;2023-06-26T02:01:18;7.55;;;4.05;;
79792;SDS011;69279;49.072;17.462;2023-06-26T02:03:43;7.15;;;3.97;;
79792;SDS011;69279;49.072;17.462;2023-06-26T02:06:09;6.63;;;3.78;;
79792;SDS011;69279;49.072;17.462;2023-06-26T02:08:34;9.07;;;3.88;;
79792;SDS011;69279;49.072;17.462;2023-06-26T02:10:59;7.45;;;4.43;;
79792;SDS011;69279;49.072;17.462;2023-06-26T02:13:25;6.57;;;3.90;;
79792;SDS011;69279;49.072;17.462;2023-06-26T02:15:50;8.65;;;4.05;;
79792;SDS011;69279;49.072;17.462;2023-06-26T02:18:15;7.35;;;4.38;;
79792;SDS011;69279;49.072;17.462;2023-06-26T02:20:41;7.22;;;3.92;;
79792;SDS011;69279;49.072;17.462;2023-06-26T02:23:08;5.88;;;3.63;;
79792;SDS011;69279;49.072;17.462;2023-06-26T02:25:34;8.00;;;4.10;;
79792;SDS011;69279;49.072;17.462;2023-06-26T02:28:00;7.70;;;4.03;;
79792;SDS011;69279;49.072;17.462;2023-06-26T02:30:25;8.10;;;4.60;;
79792;SDS011;69279;49.072;17.462;2023-06-26T02:32:50;8.45;;;4.35;;
79792;SDS011;69279;49.072;17.462;2023-06-26T02:35:16;8.40;;;4.15;;
79792;SDS011;69279;49.072;17.462;2023-06-26T02:37:41;8.38;;;4.15;;
79792;SDS011;69279;49.072;17.462;2023-06-26T02:40:07;7.85;;;3.92;;
79792;SDS011;69279;49.072;17.462;2023-06-26T02:42:35;6.43;;;4.38;;
79792;SDS011;69279;49.072;17.462;2023-06-26T02:45:00;7.07;;;4.43;;
79792;SDS011;69279;49.072;17.462;2023-06-26T02:47:26;6.35;;;4.10;;
79792;SDS011;69279;49.072;17.462;2023-06-26T02:49:51;6.15;;;4.22;;
79792;SDS011;69279;49.072;17.462;2023-06-26T02:52:16;7.43;;;4.60;;
79792;SDS011;69279;49.072;17.462;2023-06-26T02:54:42;6.55;;;4.07;;
79792;SDS011;69279;49.072;17.462;2023-06-26T02:57:08;8.52;;;4.50;;
79792;SDS011;69279;49.072;17.462;2023-06-26T02:59:34;6.15;;;3.88;;
79792;SDS011;69279;49.072;17.462;2023-06-26T03:01:59;9.98;;;5.35;;
79792;SDS011;69279;49.072;17.462;2023-06-26T03:04:24;8.40;;;4.55;;
79792;SDS011;69279;49.072;17.462;2023-06-26T03:06:51;8.20;;;4.22;;
79792;SDS011;69279;49.072;17.462;2023-06-26T03:09:17;8.32;;;4.57;;
79792;SDS011;69279;49.072;17.462;2023-06-26T03:11:43;8.63;;;3.85;;
79792;SDS011;69279;49.072;17.462;2023-06-26T03:14:08;8.93;;;4.20;;
79792;SDS011;69279;49.072;17.462;2023-06-26T03:16:33;6.88;;;4.38;;
79792;SDS011;69279;49.072;17.462;2023-06-26T03:18:59;7.93;;;4.20;;
79792;SDS011;69279;49.072;17.462;2023-06-26T03:21:24;7.80;;;4.43;;
79792;SDS011;69279;49.072;17.462;2023-06-26T03:23:49;9.25;;;4.22;;
79792;SDS011;69279;49.072;17.462;2023-06-26T03:26:15;7.75;;;4.40;;
79792;SDS011;69279;49.072;17.462;2023-06-26T03:28:40;9.23;;;4.63;;
79792;SDS011;69279;49.072;17.462;2023-06-26T03:31:07;8.18;;;4.60;;
79792;SDS011;69279;49.072;17.462;2023-06-26T03:33:32;7.38;;;4.28;;
79792;SDS011;69279;49.072;17.462;2023-06-26T03:35:58;9.32;;;4.57;;
79792;SDS011;69279;49.072;17.462;2023-06-26T03:38:24;9.57;;;4.97;;
79792;SDS011;69279;49.072;17.462;2023-06-26T03:40:50;7.53;;;4.50;;
79792;SDS011;69279;49.072;17.462;2023-06-26T03:43:16;11.75;;;5.15;;
79792;SDS011;69279;49.072;17.462;2023-06-26T03:45:41;9.70;;;5.82;;
79792;SDS011;69279;49.072;17.462;2023-06-26T03:48:07;9.43;;;5.25;;
79792;SDS011;69279;49.072;17.462;2023-06-26T03:50:33;8.68;;;5.15;;
79792;SDS011;69279;49.072;17.462;2023-06-26T03:52:58;10.07;;;4.93;;
79792;SDS011;69279;49.072;17.462;2023-06-26T03:55:24;10.00;;;5.13;;
79792;SDS011;69279;49.072;17.462;2023-06-26T03:57:49;9.07;;;5.30;;
79792;SDS011;69279;49.072;17.462;2023-06-26T04:00:15;13.95;;;5.85;;
79792;SDS011;69279;49.072;17.462;2023-06-26T04:02:40;12.10;;;5.72;;
79792;SDS011;69279;49.072;17.462;2023-06-26T04:05:06;11.52;;;5.75;;
79792;SDS011;69279;49.072;17.462;2023-06-26T04:07:31;12.57;;;5.72;;
79792;SDS011;69279;49.072;17.462;2023-06-26T04:09:57;10.88;;;5.55;;
79792;SDS011;69279;49.072;17.462;2023-06-26T04:12:22;9.65;;;5.05;;
79792;SDS011;69279;49.072;17.462;2023-06-26T04:14:48;9.77;;;5.63;;
79792;SDS011;69279;49.072;17.462;2023-06-26T04:17:13;9.63;;;6.05;;
79792;SDS011;69279;49.072;17.462;2023-06-26T04:19:40;10.65;;;5.80;;
79792;SDS011;69279;49.072;17.462;2023-06-26T04:22:05;11.40;;;6.85;;
79792;SDS011;69279;49.072;17.462;2023-06-26T04:24:31;12.60;;;6.68;;
79792;SDS011;69279;49.072;17.462;2023-06-26T04:26:56;10.27;;;5.90;;
79792;SDS011;69279;49.072;17.462;2023-06-26T04:29:22;11.57;;;6.07;;
79792;SDS011;69279;49.072;17.462;2023-06-26T04:31:51;10.93;;;6.07;;
79792;SDS011;69279;49.072;17.462;2023-06-26T04:34:16;12.77;;;6.18;;
79792;SDS011;69279;49.072;17.462;2023-06-26T04:36:42;10.73;;;6.78;;
79792;SDS011;69279;49.072;17.462;2023-06-26T04:39:13;12.10;;;6.10;;
79792;SDS011;69279;49.072;17.462;2023-06-26T04:41:40;13.32;;;6.47;;
79792;SDS011;69279;49.072;17.462;2023-06-26T04:44:05;11.20;;;6.55;;
79792;SDS011;69279;49.072;17.462;2023-06-26T04:46:31;13.80;;;6.30;;
79792;SDS011;69279;49.072;17.462;2023-06-26T04:48:56;9.90;;;6.47;;
79792;SDS011;69279;49.072;17.462;2023-06-26T04:51:23;13.30;;;6.28;;
79792;SDS011;69279;49.072;17.462;2023-06-26T04:53:53;13.38;;;6.20;;
79792;SDS011;69279;49.072;17.462;2023-06-26T04:56:18;15.23;;;7.00;;
79792;SDS011;69279;49.072;17.462;2023-06-26T04:58:44;12.30;;;6.50;;
79792;SDS011;69279;49.072;17.462;2023-06-26T05:01:10;10.82;;;6.50;;
79792;SDS011;69279;49.072;17.462;2023-06-26T05:03:38;11.63;;;6.65;;
79792;SDS011;69279;49.072;17.462;2023-06-26T05:06:04;13.63;;;6.82;;
79792;SDS011;69279;49.072;17.462;2023-06-26T05:08:30;9.38;;;5.97;;
79792;SDS011;69279;49.072;17.462;2023-06-26T05:10:55;12.13;;;7.25;;
79792;SDS011;69279;49.072;17.462;2023-06-26T05:13:24;8.70;;;6.15;;
79792;SDS011;69279;49.072;17.462;2023-06-26T05:15:49;11.25;;;6.13;;
79792;SDS011;69279;49.072;17.462;2023-06-26T05:18:15;12.48;;;6.53;;
79792;SDS011;69279;49.072;17.462;2023-06-26T05:20:40;12.88;;;7.07;;
79792;SDS011;69279;49.072;17.462;2023-06-26T05:23:06;10.20;;;6.30;;
79792;SDS011;69279;49.072;17.462;2023-06-26T05:25:32;15.60;;;7.03;;
79792;SDS011;69279;49.072;17.462;2023-06-26T05:27:59;11.65;;;7.15;;
79792;SDS011;69279;49.072;17.462;2023-06-26T05:30:25;10.40;;;6.03;;
79792;SDS011;69279;49.072;17.462;2023-06-26T05:32:52;11.13;;;6.85;;
79792;SDS011;69279;49.072;17.462;2023-06-26T05:35:20;11.02;;;6.28;;
79792;SDS011;69279;49.072;17.462;2023-06-26T05:37:48;10.20;;;6.20;;
79792;SDS011;69279;49.072;17.462;2023-06-26T05:40:15;12.63;;;6.57;;
79792;SDS011;69279;49.072;17.462;2023-06-26T05:42:41;11.98;;;6.13;;
79792;SDS011;69279;49.072;17.462;2023-06-26T05:45:07;10.00;;;6.45;;
79792;SDS011;69279;49.072;17.462;2023-06-26T05:47:34;12.02;;;6.63;;
79792;SDS011;69279;49.072;17.462;2023-06-26T05:49:59;10.10;;;6.20;;
79792;SDS011;69279;49.072;17.462;2023-06-26T05:52:25;9.15;;;6.18;;
79792;SDS011;69279;49.072;17.462;2023-06-26T05:54:52;10.13;;;5.75;;
79792;SDS011;69279;49.072;17.462;2023-06-26T05:57:17;10.25;;;5.45;;
79792;SDS011;69279;49.072;17.462;2023-06-26T05:59:44;8.38;;;5.20;;
79792;SDS011;69279;49.072;17.462;2023-06-26T06:02:11;8.85;;;5.28;;
79792;SDS011;69279;49.072;17.462;2023-06-26T06:04:36;7.88;;;4.70;;
79792;SDS011;69279;49.072;17.462;2023-06-26T06:07:03;6.68;;;4.90;;
79792;SDS011;69279;49.072;17.462;2023-06-26T06:09:28;10.07;;;5.00;;
79792;SDS011;69279;49.072;17.462;2023-06-26T06:11:54;9.40;;;4.90;;
79792;SDS011;69279;49.072;17.462;2023-06-26T06:14:20;8.98;;;5.03;;
79792;SDS011;69279;49.072;17.462;2023-06-26T06:16:46;6.55;;;4.57;;
79792;SDS011;69279;49.072;17.462;2023-06-26T06:19:11;7.38;;;4.70;;
79792;SDS011;69279;49.072;17.462;2023-06-26T06:21:38;8.15;;;5.30;;
79792;SDS011;69279;49.072;17.462;2023-06-26T06:24:04;6.68;;;4.93;;
79792;SDS011;69279;49.072;17.462;2023-06-26T06:26:29;9.05;;;5.03;;
79792;SDS011;69279;49.072;17.462;2023-06-26T06:28:55;5.72;;;4.40;;
79792;SDS011;69279;49.072;17.462;2023-06-26T06:31:20;7.32;;;4.72;;
79792;SDS011;69279;49.072;17.462;2023-06-26T06:33:46;10.80;;;5.30;;
79792;SDS011;69279;49.072;17.462;2023-06-26T06:36:11;6.82;;;4.38;;
79792;SDS011;69279;49.072;17.462;2023-06-26T06:38:36;7.95;;;4.90;;
79792;SDS011;69279;49.072;17.462;2023-06-26T06:41:02;8.23;;;4.65;;
79792;SDS011;69279;49.072;17.462;2023-06-26T06:43:27;8.05;;;5.05;;
79792;SDS011;69279;49.072;17.462;2023-06-26T06:45:53;6.53;;;4.65;;
79792;SDS011;69279;49.072;17.462;2023-06-26T06:48:18;7.28;;;5.07;;
79792;SDS011;69279;49.072;17.462;2023-06-26T06:50:44;6.30;;;4.10;;
79792;SDS011;69279;49.072;17.462;2023-06-26T06:53:09;7.78;;;4.70;;
79792;SDS011;69279;49.072;17.462;2023-06-26T06:55:34;6.20;;;4.45;;
79792;SDS011;69279;49.072;17.462;2023-06-26T06:58:00;6.30;;;4.78;;
79792;SDS011;69279;49.072;17.462;2023-06-26T07:00:25;5.60;;;4.28;;
79792;SDS011;69279;49.072;17.462;2023-06-26T07:02:52;5.05;;;4.50;;
79792;SDS011;69279;49.072;17.462;2023-06-26T07:05:18;7.07;;;4.80;;
79792;SDS011;69279;49.072;17.462;2023-06-26T07:07:43;6.35;;;4.68;;
79792;SDS011;69279;49.072;17.462;2023-06-26T07:10:10;6.28;;;4.43;;
79792;SDS011;69279;49.072;17.462;2023-06-26T07:12:37;5.88;;;4.28;;
79792;SDS011;69279;49.072;17.462;2023-06-26T07:15:03;7.50;;;4.65;;
79792;SDS011;69279;49.072;17.462;2023-06-26T07:17:30;5.97;;;4.25;;
79792;SDS011;69279;49.072;17.462;2023-06-26T07:19:56;5.65;;;3.90;;
79792;SDS011;69279;49.072;17.462;2023-06-26T07:22:22;6.07;;;4.68;;
79792;SDS011;69279;49.072;17.462;2023-06-26T07:24:49;7.95;;;4.97;;
79792;SDS011;69279;49.072;17.462;2023-06-26T07:27:15;6.18;;;3.83;;
79792;SDS011;69279;49.072;17.462;2023-06-26T07:29:41;5.97;;;4.45;;
79792;SDS011;69279;49.072;17.462;2023-06-26T07:32:07;7.13;;;4.55;;
79792;SDS011;69279;49.072;17.462;2023-06-26T07:34:32;5.57;;;4.40;;
79792;SDS011;69279;49.072;17.462;2023-06-26T07:36:58;9.18;;;5.47;;
79792;SDS011;69279;49.072;17.462;2023-06-26T07:39:24;6.03;;;4.28;;
79792;SDS011;69279;49.072;17.462;2023-06-26T07:41:49;8.05;;;4.15;;
79792;SDS011;69279;49.072;17.462;2023-06-26T07:44:14;6.88;;;4.82;;
79792;SDS011;69279;49.072;17.462;2023-06-26T07:46:40;6.72;;;4.00;;
79792;SDS011;69279;49.072;17.462;2023-06-26T07:49:05;11.27;;;4.50;;
79792;SDS011;69279;49.072;17.462;2023-06-26T07:51:31;7.82;;;4.50;;
79792;SDS011;69279;49.072;17.462;2023-06-26T07:53:57;6.40;;;4.03;;
79792;SDS011;69279;49.072;17.462;2023-06-26T07:56:22;6.72;;;4.35;;
79792;SDS011;69279;49.072;17.462;2023-06-26T07:58:48;5.63;;;4.50;;
79792;SDS011;69279;49.072;17.462;2023-06-26T08:01:15;7.18;;;4.55;;
79792;SDS011;69279;49.072;17.462;2023-06-26T08:03:41;6.50;;;4.32;;
79792;SDS011;69279;49.072;17.462;2023-06-26T08:06:06;5.50;;;4.30;;
79792;SDS011;69279;49.072;17.462;2023-06-26T08:08:31;5.82;;;4.53;;
79792;SDS011;69279;49.072;17.462;2023-06-26T08:10:58;6.50;;;4.20;;
79792;SDS011;69279;49.072;17.462;2023-06-26T08:13:24;6.30;;;4.65;;
79792;SDS011;69279;49.072;17.462;2023-06-26T08:15:50;6.03;;;4.45;;
79792;SDS011;69279;49.072;17.462;2023-06-26T08:18:15;6.68;;;4.57;;
79792;SDS011;69279;49.072;17.462;2023-06-26T08:20:41;5.40;;;3.85;;
79792;SDS011;69279;49.072;17.462;2023-06-26T08:23:07;6.80;;;4.28;;
79792;SDS011;69279;49.072;17.462;2023-06-26T08:25:32;5.13;;;3.60;;
79792;SDS011;69279;49.072;17.462;2023-06-26T08:27:59;5.53;;;4.38;;
79792;SDS011;69279;49.072;17.462;2023-06-26T08:30:24;4.72;;;3.83;;
79792;SDS011;69279;49.072;17.462;2023-06-26T08:32:54;4.85;;;3.63;;
79792;SDS011;69279;49.072;17.462;2023-06-26T08:35:20;4.78;;;3.90;;
79792;SDS011;69279;49.072;17.462;2023-06-26T08:37:47;4.35;;;3.60;;
79792;SDS011;69279;49.072;17.462;2023-06-26T08:40:12;3.83;;;3.42;;
79792;SDS011;69279;49.072;17.462;2023-06-26T08:42:41;4.05;;;3.25;;
79792;SDS011;69279;49.072;17.462;2023-06-26T08:45:07;5.13;;;3.58;;
79792;SDS011;69279;49.072;17.462;2023-06-26T08:50:30;4.80;;;3.55;;
79792;SDS011;69279;49.072;17.462;2023-06-26T08:52:58;6.13;;;3.95;;
79792;SDS011;69279;49.072;17.462;2023-06-26T08:55:33;5.75;;;3.92;;
79792;SDS011;69279;49.072;17.462;2023-06-26T08:58:17;4.40;;;3.30;;
79792;SDS011;69279;49.072;17.462;2023-06-26T09:00:42;3.90;;;3.15;;
79792;SDS011;69279;49.072;17.462;2023-06-26T09:03:10;8.88;;;3.80;;
79792;SDS011;69279;49.072;17.462;2023-06-26T09:05:38;3.80;;;3.40;;
79792;SDS011;69279;49.072;17.462;2023-06-26T09:08:04;4.82;;;3.50;;
79792;SDS011;69279;49.072;17.462;2023-06-26T09:10:30;5.10;;;3.22;;
79792;SDS011;69279;49.072;17.462;2023-06-26T09:12:56;5.47;;;3.20;;
79792;SDS011;69279;49.072;17.462;2023-06-26T09:15:23;3.55;;;3.03;;
79792;SDS011;69279;49.072;17.462;2023-06-26T09:17:49;4.15;;;2.83;;
79792;SDS011;69279;49.072;17.462;2023-06-26T09:20:15;3.97;;;3.08;;
79792;SDS011;69279;49.072;17.462;2023-06-26T09:22:41;4.45;;;3.30;;
79792;SDS011;69279;49.072;17.462;2023-06-26T09:25:08;4.40;;;3.35;;
79792;SDS011;69279;49.072;17.462;2023-06-26T09:27:34;4.68;;;3.20;;
79792;SDS011;69279;49.072;17.462;2023-06-26T09:30:01;3.60;;;2.90;;
79792;SDS011;69279;49.072;17.462;2023-06-26T09:32:31;5.03;;;3.28;;
79792;SDS011;69279;49.072;17.462;2023-06-26T09:34:56;4.63;;;3.35;;
79792;SDS011;69279;49.072;17.462;2023-06-26T09:37:21;4.40;;;3.15;;
79792;SDS011;69279;49.072;17.462;2023-06-26T09:39:50;4.03;;;3.28;;
79792;SDS011;69279;49.072;17.462;2023-06-26T09:42:16;4.45;;;3.55;;
79792;SDS011;69279;49.072;17.462;2023-06-26T09:44:44;5.20;;;3.00;;
79792;SDS011;69279;49.072;17.462;2023-06-26T09:47:10;3.95;;;2.78;;
79792;SDS011;69279;49.072;17.462;2023-06-26T09:49:36;3.80;;;3.35;;
79792;SDS011;69279;49.072;17.462;2023-06-26T09:52:02;3.95;;;3.20;;
79792;SDS011;69279;49.072;17.462;2023-06-26T09:54:27;3.50;;;2.97;;
79792;SDS011;69279;49.072;17.462;2023-06-26T09:56:55;4.45;;;3.10;;
79792;SDS011;69279;49.072;17.462;2023-06-26T09:59:21;4.82;;;3.42;;
79792;SDS011;69279;49.072;17.462;2023-06-26T10:01:48;4.30;;;3.20;;
79792;SDS011;69279;49.072;17.462;2023-06-26T10:04:15;3.45;;;2.72;;
79792;SDS011;69279;49.072;17.462;2023-06-26T10:06:41;3.90;;;3.08;;
79792;SDS011;69279;49.072;17.462;2023-06-26T10:09:12;4.32;;;3.30;;
79792;SDS011;69279;49.072;17.462;2023-06-26T10:11:41;4.50;;;3.38;;
79792;SDS011;69279;49.072;17.462;2023-06-26T10:14:08;3.55;;;3.03;;
79792;SDS011;69279;49.072;17.462;2023-06-26T10:16:34;4.57;;;3.00;;
79792;SDS011;69279;49.072;17.462;2023-06-26T10:19:04;4.00;;;3.60;;
79792;SDS011;69279;49.072;17.462;2023-06-26T10:21:31;3.47;;;3.17;;
79792;SDS011;69279;49.072;17.462;2023-06-26T10:24:00;3.40;;;2.88;;
79792;SDS011;69279;49.072;17.462;2023-06-26T10:26:30;4.90;;;3.10;;
79792;SDS011;69279;49.072;17.462;2023-06-26T10:28:56;4.50;;;2.90;;
79792;SDS011;69279;49.072;17.462;2023-06-26T10:31:25;3.65;;;3.13;;
79792;SDS011;69279;49.072;17.462;2023-06-26T10:33:52;3.97;;;3.08;;
79792;SDS011;69279;49.072;17.462;2023-06-26T10:36:20;4.72;;;3.42;;
79792;SDS011;69279;49.072;17.462;2023-06-26T10:38:57;3.95;;;3.20;;
79792;SDS011;69279;49.072;17.462;2023-06-26T10:41:24;4.60;;;3.22;;
79792;SDS011;69279;49.072;17.462;2023-06-26T10:43:59;3.33;;;2.85;;
79792;SDS011;69279;49.072;17.462;2023-06-26T10:46:53;4.07;;;3.17;;
79792;SDS011;69279;49.072;17.462;2023-06-26T10:49:19;3.75;;;3.20;;
79792;SDS011;69279;49.072;17.462;2023-06-26T10:51:55;4.90;;;3.58;;
79792;SDS011;69279;49.072;17.462;2023-06-26T10:54:27;3.40;;;2.97;;
79792;SDS011;69279;49.072;17.462;2023-06-26T10:56:55;3.60;;;2.80;;
79792;SDS011;69279;49.072;17.462;2023-06-26T10:59:27;3.30;;;2.97;;
79792;SDS011;69279;49.072;17.462;2023-06-26T11:01:57;5.63;;;3.20;;
79792;SDS011;69279;49.072;17.462;2023-06-26T11:07:19;4.03;;;3.00;;
79792;SDS011;69279;49.072;17.462;2023-06-26T11:15:03;3.90;;;2.90;;
79792;SDS011;69279;49.072;17.462;2023-06-26T11:17:32;3.42;;;3.13;;
79792;SDS011;69279;49.072;17.462;2023-06-26T11:19:59;4.05;;;2.90;;
79792;SDS011;69279;49.072;17.462;2023-06-26T11:22:25;3.80;;;2.97;;
79792;SDS011;69279;49.072;17.462;2023-06-26T11:24:53;4.00;;;2.92;;
79792;SDS011;69279;49.072;17.462;2023-06-26T11:27:18;3.58;;;3.28;;
79792;SDS011;69279;49.072;17.462;2023-06-26T11:29:47;4.43;;;3.10;;
79792;SDS011;69279;49.072;17.462;2023-06-26T11:32:14;3.28;;;2.83;;
79792;SDS011;69279;49.072;17.462;2023-06-26T11:34:40;4.97;;;3.10;;
79792;SDS011;69279;49.072;17.462;2023-06-26T11:37:08;3.53;;;3.05;;
79792;SDS011;69279;49.072;17.462;2023-06-26T11:39:34;3.65;;;2.75;;
79792;SDS011;69279;49.072;17.462;2023-06-26T11:42:03;4.43;;;2.78;;
79792;SDS011;69279;49.072;17.462;2023-06-26T11:44:30;3.83;;;3.15;;
79792;SDS011;69279;49.072;17.462;2023-06-26T11:46:56;2.90;;;2.60;;
79792;SDS011;69279;49.072;17.462;2023-06-26T11:49:22;3.75;;;2.67;;
79792;SDS011;69279;49.072;17.462;2023-06-26T11:51:51;3.17;;;2.90;;
79792;SDS011;69279;49.072;17.462;2023-06-26T11:54:24;3.20;;;2.85;;
79792;SDS011;69279;49.072;17.462;2023-06-26T11:56:57;4.95;;;2.67;;
79792;SDS011;69279;49.072;17.462;2023-06-26T12:01:50;4.45;;;3.33;;
79792;SDS011;69279;49.072;17.462;2023-06-26T12:04:18;3.58;;;2.83;;
79792;SDS011;69279;49.072;17.462;2023-06-26T12:06:46;3.95;;;2.55;;
79792;SDS011;69279;49.072;17.462;2023-06-26T12:09:17;3.47;;;2.80;;
79792;SDS011;69279;49.072;17.462;2023-06-26T12:11:44;4.03;;;3.13;;
79792;SDS011;69279;49.072;17.462;2023-06-26T12:14:10;5.00;;;2.92;;
79792;SDS011;69279;49.072;17.462;2023-06-26T12:16:36;3.10;;;2.80;;
79792;SDS011;69279;49.072;17.462;2023-06-26T12:19:02;4.85;;;2.65;;
79792;SDS011;69279;49.072;17.462;2023-06-26T12:24:09;3.88;;;2.75;;
79792;SDS011;69279;49.072;17.462;2023-06-26T12:26:41;3.85;;;3.15;;
79792;SDS011;69279;49.072;17.462;2023-06-26T12:29:09;3.85;;;2.83;;
79792;SDS011;69279;49.072;17.462;2023-06-26T12:31:45;3.42;;;2.67;;
79792;SDS011;69279;49.072;17.462;2023-06-26T12:34:14;4.88;;;2.70;;
79792;SDS011;69279;49.072;17.462;2023-06-26T12:36:47;3.05;;;2.75;;
79792;SDS011;69279;49.072;17.462;2023-06-26T12:39:16;3.08;;;2.63;;
79792;SDS011;69279;49.072;17.462;2023-06-26T12:44:28;8.15;;;2.60;;
79792;SDS011;69279;49.072;17.462;2023-06-26T12:46:57;3.60;;;2.42;;
79792;SDS011;69279;49.072;17.462;2023-06-26T12:49:30;5.80;;;2.50;;
79792;SDS011;69279;49.072;17.462;2023-06-26T12:52:00;3.35;;;2.90;;
79792;SDS011;69279;49.072;17.462;2023-06-26T12:54:26;3.83;;;2.83;;
79792;SDS011;69279;49.072;17.462;2023-06-26T12:56:53;5.65;;;2.88;;
79792;SDS011;69279;49.072;17.462;2023-06-26T12:59:18;5.03;;;2.92;;
79792;SDS011;69279;49.072;17.462;2023-06-26T13:01:44;4.38;;;3.03;;
79792;SDS011;69279;49.072;17.462;2023-06-26T13:04:09;3.17;;;2.78;;
79792;SDS011;69279;49.072;17.462;2023-06-26T13:06:35;5.30;;;3.17;;
79792;SDS011;69279;49.072;17.462;2023-06-26T13:09:01;4.38;;;3.25;;
79792;SDS011;69279;49.072;17.462;2023-06-26T13:11:33;2.88;;;2.53;;
79792;SDS011;69279;49.072;17.462;2023-06-26T13:13:59;5.07;;;3.03;;
79792;SDS011;69279;49.072;17.462;2023-06-26T13:16:25;3.67;;;3.00;;
79792;SDS011;69279;49.072;17.462;2023-06-26T13:18:50;3.33;;;2.72;;
79792;SDS011;69279;49.072;17.462;2023-06-26T13:21:15;3.30;;;2.90;;
79792;SDS011;69279;49.072;17.462;2023-06-26T13:23:42;3.20;;;2.63;;
79792;SDS011;69279;49.072;17.462;2023-06-26T13:26:07;4.13;;;3.10;;
79792;SDS011;69279;49.072;17.462;2023-06-26T13:28:33;4.10;;;2.88;;
79792;SDS011;69279;49.072;17.462;2023-06-26T13:30:58;3.80;;;2.70;;
79792;SDS011;69279;49.072;17.462;2023-06-26T13:33:24;6.15;;;2.92;;
79792;SDS011;69279;49.072;17.462;2023-06-26T13:35:52;3.33;;;2.70;;
79792;SDS011;69279;49.072;17.462;2023-06-26T13:38:20;3.88;;;2.72;;
79792;SDS011;69279;49.072;17.462;2023-06-26T13:40:51;3.72;;;2.78;;
79792;SDS011;69279;49.072;17.462;2023-06-26T13:43:17;6.18;;;3.10;;
79792;SDS011;69279;49.072;17.462;2023-06-26T13:45:43;3.50;;;3.20;;
79792;SDS011;69279;49.072;17.462;2023-06-26T13:48:09;3.05;;;2.67;;
79792;SDS011;69279;49.072;17.462;2023-06-26T13:50:35;3.03;;;2.72;;
79792;SDS011;69279;49.072;17.462;2023-06-26T13:53:01;5.05;;;2.67;;
79792;SDS011;69279;49.072;17.462;2023-06-26T13:55:27;4.88;;;2.85;;
79792;SDS011;69279;49.072;17.462;2023-06-26T13:57:52;5.32;;;3.10;;
79792;SDS011;69279;49.072;17.462;2023-06-26T14:00:18;3.50;;;3.00;;
79792;SDS011;69279;49.072;17.462;2023-06-26T14:02:46;3.33;;;2.92;;
79792;SDS011;69279;49.072;17.462;2023-06-26T14:05:11;4.05;;;2.83;;
79792;SDS011;69279;49.072;17.462;2023-06-26T14:07:37;4.32;;;2.88;;
79792;SDS011;69279;49.072;17.462;2023-06-26T14:10:03;4.60;;;3.00;;
79792;SDS011;69279;49.072;17.462;2023-06-26T14:12:31;3.63;;;3.08;;
79792;SDS011;69279;49.072;17.462;2023-06-26T14:14:59;3.97;;;2.72;;
79792;SDS011;69279;49.072;17.462;2023-06-26T14:17:25;4.47;;;2.83;;
79792;SDS011;69279;49.072;17.462;2023-06-26T14:19:53;4.15;;;2.80;;
79792;SDS011;69279;49.072;17.462;2023-06-26T14:22:19;3.20;;;2.70;;
79792;SDS011;69279;49.072;17.462;2023-06-26T14:24:44;3.70;;;2.70;;
79792;SDS011;69279;49.072;17.462;2023-06-26T14:27:10;3.85;;;3.03;;
79792;SDS011;69279;49.072;17.462;2023-06-26T14:29:35;4.13;;;2.80;;
79792;SDS011;69279;49.072;17.462;2023-06-26T14:32:02;5.40;;;3.30;;
79792;SDS011;69279;49.072;17.462;2023-06-26T14:34:28;4.20;;;2.97;;
79792;SDS011;69279;49.072;17.462;2023-06-26T14:36:53;3.78;;;2.50;;
79792;SDS011;69279;49.072;17.462;2023-06-26T14:39:18;4.85;;;3.10;;
79792;SDS011;69279;49.072;17.462;2023-06-26T14:41:45;3.33;;;2.50;;
79792;SDS011;69279;49.072;17.462;2023-06-26T14:44:12;3.22;;;2.67;;
79792;SDS011;69279;49.072;17.462;2023-06-26T14:46:38;3.45;;;2.72;;
79792;SDS011;69279;49.072;17.462;2023-06-26T14:49:03;5.05;;;2.97;;
79792;SDS011;69279;49.072;17.462;2023-06-26T14:51:28;4.35;;;3.00;;